Aérodrome :
LOGIN :

S'inscrire | Disclaimer

   EN    FR    IT 

 










Légende :    VFR   VFR Marginal   IFR   IFR Intensif   IFR Très Intensif
Visi : 
Plafond : 
>= 8 km
>= 3000ft
5 à 8 km
1000 à 3000 ft
1500m à 5 km
500 à 1000 ft
800 à 1500m
200 à 500 ft
< 800m
< 200 ft
Symboles :   Orages  Brouillard  Fortes neiges  Fortes précipitations  Vent > 20 kt
SIGMETs :   Divers  Orages  Givrage  Turbulence  Onde Orograph.  Cendres Volcan.






- Altitude de l'aérodrome : 157 ft
- Code IATA : LIL


LFQQ - Lille Lesquin

DERNIER METAR :
  • 210830Z AUTO 09006KT 4000 BR OVC005 01/00 Q1007 NOSIG

METARs EXPIRÉS :
  • 210800Z AUTO 09005KT 4100 BR OVC005 01/M00 Q1007 NOSIG
  • 210730Z AUTO 09005KT 4400 BR OVC005 00/M00 Q1007 NOSIG
  • 210700Z AUTO 09005KT 5000 BR OVC005 00/M00 Q1007 NOSIG
  • 210630Z AUTO 09005KT 6000 OVC005 00/M01 Q1007 TEMPO 4000 BR
  • 210600Z AUTO 11006KT 7000 OVC007 00/M01 Q1007 TEMPO 4000 BR OVC004

TAF TAF LFQQ
Valide du 21 à 06h jusqu'au 22 à 12h UTC


210500Z 2106/2212 08006KT 6000 OVC007
TEMPO 2106/2111 4000 BR OVC004
BECMG 2111/2113 14010KT
BECMG 2113/2116 NSC
TEMPO 2122/2202 3000 RA BKN007 OVC030
FM220200 16013KT 9999 OVC007
BECMG 2209/2211 NSC
ATIS : +33 3 20 16 19 54



MET'MAP, la Météo Aéronautique d'un coup d'oeil ! - Copyright ORBIFLY Décembre 2007 - Disclaimer

ORBIFLY MET'MAP TEAM :

Programmation & Développement : Alexandra Zaïnal
Conception & Développement : Baudouin d'Aumeries
Co-Programmation & Développement : Marc-Olivier Méhu
Soutien technique & logistique : Manuel Goepfert

Contact : metmap@orbifly.com




SOURCES & CREDITS :

   NOAA